Time;durP1;ratioP1;P1;durP2;ratioP2;P2;SDS_P1;SDS_P2;PMS_P1;PMS_P2;Temp;Humidity;BMP_temperature;BMP_pressure;BME280_temperature;BME280_humidity;BME280_pressure;Samples;Min_cycle;Max_cycle;Signal;HPM_P1;HPM_P2
2022/03/12 00:00:49;;;;;;;5.63;3.20;;;23.70;27.10;;;;;;4964541;28;20404;-75
2022/03/12 00:03:16;;;;;;;3.80;3.17;;;23.70;27.10;;;;;;4967091;28;20384;-73
2022/03/12 00:05:54;;;;;;;4.40;3.13;;;23.80;27.20;;;;;;4967612;28;20400;-73
2022/03/12 00:08:44;;;;;;;4.45;3.33;;;23.70;27.20;;;;;;4959803;28;20796;-74
2022/03/12 00:11:34;;;;;;;3.80;3.05;;;23.70;27.30;;;;;;4965206;28;20392;-74
2022/03/12 00:14:05;;;;;;;4.53;3.30;;;23.70;27.30;;;;;;4960205;28;20503;-74
2022/03/12 00:16:31;;;;;;;3.77;2.80;;;23.70;27.40;;;;;;4965573;28;20910;-74
2022/03/12 00:19:00;;;;;;;3.53;3.00;;;23.70;27.40;;;;;;4964302;28;20424;-74
2022/03/12 00:21:27;;;;;;;4.13;2.90;;;23.70;27.30;;;;;;4967806;28;20399;-74
2022/03/12 00:24:05;;;;;;;4.20;2.70;;;23.70;27.20;;;;;;4966019;28;21884;-74
2022/03/12 00:26:33;;;;;;;4.57;3.38;;;23.50;27.10;;;;;;4966374;28;20834;-74
2022/03/12 00:28:59;;;;;;;3.78;3.00;;;23.70;27.20;;;;;;4964588;28;20406;-74
2022/03/12 00:31:25;;;;;;;4.43;3.05;;;23.70;27.10;;;;;;4963933;28;20470;-74
2022/03/12 00:33:51;;;;;;;4.93;3.20;;;23.60;27.10;;;;;;4962862;28;20419;-74
2022/03/12 00:36:17;;;;;;;3.67;2.78;;;23.60;27.20;;;;;;4962757;28;20389;-74
2022/03/12 00:38:45;;;;;;;4.30;3.20;;;23.60;27.20;;;;;;4961380;28;20396;-74
2022/03/12 00:41:12;;;;;;;4.60;2.92;;;23.60;27.30;;;;;;4964588;28;20401;-74
2022/03/12 00:43:38;;;;;;;4.18;3.10;;;23.60;27.30;;;;;;4964907;28;21152;-74
2022/03/12 00:46:05;;;;;;;4.35;3.08;;;23.60;27.30;;;;;;4948492;28;20408;-74
2022/03/12 00:48:31;;;;;;;3.83;3.00;;;23.60;27.40;;;;;;4964568;28;20400;-73
2022/03/12 00:50:57;;;;;;;4.00;2.90;;;23.60;27.30;;;;;;4960812;28;20406;-73
2022/03/12 00:53:22;;;;;;;4.57;3.20;;;23.60;27.40;;;;;;4957053;28;20503;-74
2022/03/12 00:55:48;;;;;;;4.13;3.40;;;23.60;27.30;;;;;;4948077;28;20410;-74
2022/03/12 00:58:14;;;;;;;5.22;3.17;;;23.50;27.30;;;;;;4953856;28;20398;-74
2022/03/12 01:00:39;;;;;;;4.25;3.00;;;23.50;27.30;;;;;;4968113;28;20776;-74
2022/03/12 01:03:05;;;;;;;3.67;2.80;;;23.50;27.20;;;;;;4973667;28;20783;-75
2022/03/12 01:05:55;;;;;;;3.30;2.75;;;23.50;27.40;;;;;;4973457;28;20871;-74
2022/03/12 01:08:23;;;;;;;4.27;3.10;;;23.50;27.50;;;;;;4973393;28;20475;-74
2022/03/12 01:10:49;;;;;;;3.80;2.60;;;23.50;27.50;;;;;;4973381;28;20400;-74
2022/03/12 01:13:15;;;;;;;3.63;3.13;;;23.50;27.40;;;;;;4955953;28;20435;-75
2022/03/12 01:15:41;;;;;;;3.97;2.80;;;23.50;27.40;;;;;;4973222;28;20471;-75
2022/03/12 01:18:12;;;;;;;3.92;2.72;;;23.40;27.30;;;;;;4972905;28;20420;-75
2022/03/12 01:20:38;;;;;;;3.90;2.90;;;23.40;27.40;;;;;;4955917;28;20404;-74
2022/03/12 01:23:04;;;;;;;3.38;2.80;;;23.40;27.40;;;;;;4973206;28;20463;-74
2022/03/12 01:25:30;;;;;;;3.42;2.78;;;23.40;27.30;;;;;;4973124;28;20397;-74
2022/03/12 01:27:56;;;;;;;3.72;2.70;;;23.40;27.30;;;;;;4972663;28;20875;-74
2022/03/12 01:30:30;;;;;;;3.53;2.80;;;23.40;27.20;;;;;;4973139;28;20430;-74
2022/03/12 01:32:56;;;;;;;4.78;3.05;;;23.40;27.20;;;;;;4972901;28;20443;-74
2022/03/12 01:35:23;;;;;;;3.50;2.80;;;23.40;27.30;;;;;;4973125;28;20407;-75
2022/03/12 01:37:49;;;;;;;3.65;2.92;;;23.40;27.20;;;;;;4955443;28;20424;-73
2022/03/12 01:40:15;;;;;;;3.83;2.90;;;23.40;27.30;;;;;;4972718;28;20496;-74
2022/03/12 01:42:43;;;;;;;4.45;2.78;;;23.40;27.30;;;;;;4972667;28;20767;-74
2022/03/12 01:45:12;;;;;;;5.05;2.97;;;23.40;27.30;;;;;;4972796;28;20467;-74
2022/03/12 01:47:38;;;;;;;4.72;2.70;;;23.40;27.30;;;;;;4972777;28;20402;-74
2022/03/12 01:50:05;;;;;;;3.65;2.70;;;23.40;27.30;;;;;;4971698;28;20400;-74
2022/03/12 01:52:31;;;;;;;4.13;2.70;;;23.30;27.40;;;;;;4972769;28;20528;-74
2022/03/12 01:54:57;;;;;;;4.30;2.63;;;23.30;27.50;;;;;;4972710;28;20408;-75
2022/03/12 01:57:23;;;;;;;4.43;2.67;;;23.40;27.40;;;;;;4955457;28;20404;-74
2022/03/12 01:59:50;;;;;;;3.10;2.60;;;23.40;27.40;;;;;;4972473;28;20400;-75
2022/03/12 02:02:17;;;;;;;3.47;2.60;;;23.40;27.40;;;;;;4972540;28;20396;-75
2022/03/12 02:04:51;;;;;;;3.40;2.70;;;23.30;27.40;;;;;;4955338;28;20400;-74
2022/03/12 02:07:18;;;;;;;4.10;2.55;;;23.30;27.40;;;;;;4955403;28;20401;-74
2022/03/12 02:09:44;;;;;;;4.47;2.80;;;23.30;27.40;;;;;;4972462;28;20427;-74
2022/03/12 02:12:11;;;;;;;3.80;2.78;;;23.30;27.30;;;;;;4955142;28;20404;-75
2022/03/12 02:14:37;;;;;;;4.53;2.83;;;23.30;27.30;;;;;;4972583;28;20428;-74
2022/03/12 02:17:10;;;;;;;3.88;2.90;;;23.30;27.30;;;;;;4955328;28;20400;-74
2022/03/12 02:19:36;;;;;;;3.50;2.60;;;23.30;27.30;;;;;;4955117;28;20587;-75
2022/03/12 02:22:13;;;;;;;3.60;2.47;;;23.30;27.20;;;;;;4954834;28;20396;-74
2022/03/12 02:24:39;;;;;;;3.00;2.50;;;23.20;27.20;;;;;;4955186;28;20400;-75
2022/03/12 02:27:10;;;;;;;3.10;2.60;;;23.30;27.30;;;;;;4972557;28;20474;-75
2022/03/12 02:29:37;;;;;;;3.53;2.80;;;23.20;27.30;;;;;;4955201;28;20503;-74
2022/03/12 02:32:06;;;;;;;3.90;2.70;;;23.30;27.40;;;;;;4972054;28;20411;-74
2022/03/12 02:34:44;;;;;;;4.10;2.58;;;23.10;27.50;;;;;;4954978;28;20424;-74
2022/03/12 02:37:11;;;;;;;3.53;2.70;;;23.20;27.50;;;;;;4955088;28;20909;-74
2022/03/12 02:39:38;;;;;;;3.40;2.47;;;23.20;27.50;;;;;;4955013;28;20748;-75
2022/03/12 02:42:05;;;;;;;3.42;2.40;;;23.20;27.50;;;;;;4971856;28;20384;-75
2022/03/12 02:44:31;;;;;;;3.10;2.55;;;23.20;27.40;;;;;;4972322;28;20396;-74
2022/03/12 02:47:25;;;;;;;3.15;2.50;;;23.10;27.40;;;;;;4972289;28;20397;-74
2022/03/12 02:49:57;;;;;;;2.85;2.30;;;23.00;27.40;;;;;;4954646;28;20752;-75
2022/03/12 02:52:27;;;;;;;3.97;2.67;;;22.90;27.50;;;;;;4973441;28;20392;-74
2022/03/12 02:54:57;;;;;;;3.50;2.80;;;22.80;27.30;;;;;;4954821;28;20910;-74
2022/03/12 02:57:25;;;;;;;3.22;2.60;;;22.80;27.30;;;;;;4955408;28;20407;-74
2022/03/12 02:59:54;;;;;;;3.20;2.30;;;22.90;27.30;;;;;;4953975;28;20424;-75
2022/03/12 03:02:28;;;;;;;3.72;2.60;;;22.80;27.40;;;;;;4974674;28;20400;-75
2022/03/12 03:04:54;;;;;;;3.35;2.70;;;22.70;27.40;;;;;;4976505;28;20941;-74
2022/03/12 03:07:20;;;;;;;3.10;2.60;;;22.70;27.40;;;;;;4975826;28;20388;-75
2022/03/12 03:09:46;;;;;;;3.75;2.78;;;22.60;27.40;;;;;;4975618;28;20398;-74
2022/03/12 03:12:12;;;;;;;3.17;2.50;;;22.70;27.40;;;;;;4958278;28;20400;-74
2022/03/12 03:14:43;;;;;;;3.37;2.70;;;22.60;27.50;;;;;;4958465;28;20511;-75
2022/03/12 03:17:11;;;;;;;4.03;2.58;;;22.60;27.60;;;;;;4958310;28;20826;-74
2022/03/12 03:19:38;;;;;;;2.95;2.38;;;22.60;27.70;;;;;;4975303;28;20416;-75
2022/03/12 03:22:05;;;;;;;3.42;2.42;;;22.50;27.60;;;;;;4957757;28;20412;-75
2022/03/12 03:24:31;;;;;;;3.45;2.40;;;22.50;27.70;;;;;;4975516;28;20432;-74
2022/03/12 03:26:59;;;;;;;2.88;2.53;;;22.50;27.60;;;;;;4975347;28;20905;-74
2022/03/12 03:29:27;;;;;;;3.30;2.70;;;22.50;27.50;;;;;;4958034;28;20412;-74
2022/03/12 03:31:54;;;;;;;2.85;2.40;;;22.50;27.50;;;;;;4957639;28;20400;-75
2022/03/12 03:34:21;;;;;;;2.90;2.45;;;22.40;27.50;;;;;;4975013;28;20420;-75
2022/03/12 03:36:47;;;;;;;3.00;2.63;;;22.40;27.50;;;;;;4957881;28;20392;-74
2022/03/12 03:39:13;;;;;;;2.97;2.40;;;22.30;27.40;;;;;;4975180;28;20408;-75
2022/03/12 03:41:38;;;;;;;3.75;2.78;;;22.30;27.40;;;;;;4975001;28;20496;-74
2022/03/12 03:44:05;;;;;;;4.18;2.50;;;22.40;27.50;;;;;;4956929;28;20417;-75
2022/03/12 03:46:32;;;;;;;3.25;2.60;;;22.30;27.50;;;;;;4975000;28;20427;-75
2022/03/12 03:48:58;;;;;;;3.28;2.60;;;22.30;27.60;;;;;;4974683;28;20404;-75
2022/03/12 03:51:24;;;;;;;3.73;2.80;;;22.30;27.60;;;;;;4974898;28;20398;-75
2022/03/12 03:53:51;;;;;;;3.75;2.80;;;22.20;27.40;;;;;;4957314;28;20420;-74
2022/03/12 03:56:18;;;;;;;3.15;2.55;;;22.20;27.50;;;;;;4974941;28;20388;-74
2022/03/12 03:58:44;;;;;;;4.15;2.80;;;22.20;27.50;;;;;;4957721;28;20517;-75
2022/03/12 04:01:13;;;;;;;3.30;2.72;;;22.20;27.50;;;;;;4957281;28;20436;-75
2022/03/12 04:03:44;;;;;;;3.38;2.72;;;22.10;27.70;;;;;;4974725;28;20491;-74
2022/03/12 04:06:10;;;;;;;4.10;2.90;;;22.10;27.80;;;;;;4974321;28;20905;-75
2022/03/12 04:08:36;;;;;;;3.50;2.85;;;22.10;27.90;;;;;;4974566;28;20751;-74
2022/03/12 04:11:05;;;;;;;3.70;2.50;;;22.00;27.70;;;;;;4957350;28;20447;-74
2022/03/12 04:13:32;;;;;;;4.03;2.88;;;22.10;27.70;;;;;;4956189;28;20556;-74
2022/03/12 04:16:02;;;;;;;3.83;2.70;;;22.10;27.50;;;;;;4974342;28;20392;-74
2022/03/12 04:18:28;;;;;;;3.50;2.60;;;22.10;27.60;;;;;;4956963;28;20413;-75
2022/03/12 04:20:54;;;;;;;3.90;2.83;;;22.00;27.60;;;;;;4957240;28;20408;-75
2022/03/12 04:23:25;;;;;;;3.10;2.60;;;22.00;27.50;;;;;;4957070;28;20787;-74
2022/03/12 04:25:55;;;;;;;3.40;2.80;;;22.00;27.50;;;;;;4956866;28;20407;-74
2022/03/12 04:28:21;;;;;;;3.95;3.00;;;22.00;27.50;;;;;;4974091;28;20652;-74
2022/03/12 04:30:48;;;;;;;3.50;2.70;;;22.00;27.50;;;;;;4973424;28;20404;-75
2022/03/12 04:33:14;;;;;;;3.47;2.60;;;22.10;27.40;;;;;;4956839;28;20462;-75
2022/03/12 04:35:42;;;;;;;3.40;2.50;;;22.10;27.40;;;;;;4956826;28;20431;-74
2022/03/12 04:38:12;;;;;;;3.87;2.80;;;22.10;27.40;;;;;;4973539;28;20948;-74
2022/03/12 04:40:46;;;;;;;3.65;2.85;;;22.10;27.40;;;;;;4956609;28;20393;-74
2022/03/12 04:43:12;;;;;;;3.55;2.58;;;22.20;27.50;;;;;;4973893;28;20462;-74
2022/03/12 04:45:41;;;;;;;3.50;2.67;;;22.20;27.60;;;;;;4955537;28;20404;-74
2022/03/12 04:48:07;;;;;;;3.47;2.65;;;22.20;27.60;;;;;;4955282;28;20401;-75
2022/03/12 04:50:33;;;;;;;3.70;2.67;;;22.20;27.60;;;;;;4956135;28;20396;-75
2022/03/12 04:52:59;;;;;;;3.20;2.53;;;22.20;27.60;;;;;;4973509;28;20439;-74
2022/03/12 04:55:27;;;;;;;3.55;2.70;;;22.30;27.60;;;;;;4956218;28;20396;-75
2022/03/12 04:57:54;;;;;;;3.75;2.63;;;22.20;27.60;;;;;;4973455;28;20415;-75
2022/03/12 05:00:28;;;;;;;3.78;2.58;;;22.20;27.50;;;;;;4955995;28;20771;-74
2022/03/12 05:03:14;;;;;;;3.73;3.00;;;22.20;27.60;;;;;;4973488;28;20882;-74
2022/03/12 05:05:44;;;;;;;3.55;2.63;;;22.20;27.50;;;;;;4973275;28;20535;-74
2022/03/12 05:08:13;;;;;;;4.75;2.80;;;22.20;27.60;;;;;;4955556;28;20448;-74
2022/03/12 05:10:40;;;;;;;3.35;2.65;;;22.20;27.50;;;;;;4973249;28;20397;-74
2022/03/12 05:13:06;;;;;;;3.20;2.67;;;22.20;27.60;;;;;;4955896;28;20416;-75
2022/03/12 05:15:39;;;;;;;6.35;2.95;;;22.20;27.60;;;;;;4973286;28;20407;-75
2022/03/12 05:18:11;;;;;;;6.97;3.03;;;22.20;27.80;;;;;;4972687;28;20392;-74
2022/03/12 05:20:39;;;;;;;3.67;2.80;;;22.20;27.80;;;;;;4955759;28;20504;-74
2022/03/12 05:23:07;;;;;;;5.00;3.03;;;22.20;27.60;;;;;;4972927;28;20418;-75
2022/03/12 05:25:41;;;;;;;4.50;2.90;;;22.20;27.60;;;;;;4955722;28;20400;-74
2022/03/12 05:28:10;;;;;;;3.38;2.88;;;22.20;28.10;;;;;;4972682;28;20403;-74
2022/03/12 05:30:36;;;;;;;3.60;3.00;;;22.50;27.80;;;;;;4972856;28;20926;-74
2022/03/12 05:33:04;;;;;;;4.30;3.10;;;22.20;27.60;;;;;;4955610;28;20416;-75
2022/03/12 05:35:29;;;;;;;5.35;3.15;;;22.20;27.60;;;;;;4973042;28;20879;-74
2022/03/12 05:37:55;;;;;;;4.10;3.20;;;22.20;27.50;;;;;;4972689;28;20394;-74
2022/03/12 05:40:26;;;;;;;5.15;3.35;;;22.20;27.50;;;;;;4972687;28;20451;-75
2022/03/12 05:42:55;;;;;;;5.07;3.25;;;22.20;27.60;;;;;;4973006;28;20384;-75
2022/03/12 05:45:23;;;;;;;5.55;3.67;;;22.20;27.60;;;;;;4972988;28;20883;-75
2022/03/12 05:47:50;;;;;;;5.67;3.40;;;22.20;27.50;;;;;;4972985;28;20471;-75
2022/03/12 05:50:17;;;;;;;4.40;3.30;;;22.20;27.60;;;;;;4972356;28;20392;-75
2022/03/12 05:52:46;;;;;;;4.30;3.30;;;22.20;27.60;;;;;;4972604;28;20400;-74
2022/03/12 05:55:12;;;;;;;5.18;3.50;;;22.20;27.50;;;;;;4955416;28;20412;-75
2022/03/12 05:57:38;;;;;;;5.15;3.58;;;22.20;27.60;;;;;;4972815;28;20446;-74
2022/03/12 06:00:08;;;;;;;5.55;3.47;;;22.20;27.50;;;;;;4955043;28;20415;-75
2022/03/12 06:02:34;;;;;;;8.18;4.00;;;22.20;27.50;;;;;;4973129;28;20475;-74
2022/03/12 06:05:00;;;;;;;6.93;4.00;;;22.20;27.50;;;;;;4973540;28;20396;-76
2022/03/12 06:07:27;;;;;;;4.37;3.60;;;22.10;26.60;;;;;;4973334;28;20516;-74
2022/03/12 06:09:54;;;;;;;8.90;4.43;;;22.00;26.10;;;;;;4972683;28;20392;-75
2022/03/12 06:12:20;;;;;;;7.17;4.13;;;21.90;26.60;;;;;;4972826;28;20483;-76
2022/03/12 06:14:55;;;;;;;5.82;3.80;;;21.90;26.80;;;;;;4972774;28;20420;-74
2022/03/12 06:17:24;;;;;;;5.32;3.85;;;21.90;26.70;;;;;;4972619;28;20993;-75
2022/03/12 06:19:51;;;;;;;5.95;3.78;;;21.90;27.00;;;;;;4951715;29;20434;-74
2022/03/12 06:22:17;;;;;;;6.00;3.83;;;21.90;26.90;;;;;;4953108;29;20518;-75
2022/03/12 06:24:43;;;;;;;5.73;3.67;;;21.90;27.00;;;;;;4953198;29;20398;-75
2022/03/12 06:27:09;;;;;;;5.55;3.70;;;21.90;27.00;;;;;;4953169;29;20390;-74
2022/03/12 06:29:35;;;;;;;6.32;3.90;;;21.80;27.00;;;;;;4953012;29;20402;-75
2022/03/12 06:32:01;;;;;;;5.78;3.53;;;21.80;27.00;;;;;;4952800;29;20449;-75
2022/03/12 06:34:28;;;;;;;6.75;3.78;;;21.80;27.10;;;;;;4952703;29;20448;-77
2022/03/12 06:36:54;;;;;;;6.00;3.55;;;21.90;27.30;;;;;;4955100;28;20389;-75
2022/03/12 06:39:20;;;;;;;5.65;3.60;;;21.80;27.20;;;;;;4956963;29;20397;-75
2022/03/12 06:41:46;;;;;;;5.85;3.80;;;21.80;27.20;;;;;;4955945;29;20442;-74
2022/03/12 06:44:16;;;;;;;4.53;3.67;;;21.80;27.20;;;;;;4954900;29;20405;-75
2022/03/12 06:46:42;;;;;;;6.55;3.65;;;21.90;27.20;;;;;;4955375;29;20398;-75
2022/03/12 06:49:08;;;;;;;5.93;3.47;;;21.90;27.30;;;;;;4956851;29;20461;-74
2022/03/12 06:51:34;;;;;;;6.22;3.30;;;21.80;27.30;;;;;;4956710;29;20389;-75
2022/03/12 06:54:00;;;;;;;7.68;3.65;;;21.90;27.30;;;;;;4956091;29;20500;-74
2022/03/12 06:56:26;;;;;;;7.50;3.87;;;21.90;27.30;;;;;;4956313;28;20390;-74
2022/03/12 06:58:52;;;;;;;6.20;3.65;;;21.80;27.50;;;;;;4956432;29;20756;-75
2022/03/12 07:01:18;;;;;;;6.70;3.60;;;21.80;27.50;;;;;;4956482;29;20401;-74
2022/03/12 07:03:44;;;;;;;5.13;3.67;;;21.80;27.50;;;;;;4956393;29;20402;-74
2022/03/12 07:06:10;;;;;;;6.30;3.53;;;21.90;27.50;;;;;;4956005;29;20405;-73
2022/03/12 07:08:36;;;;;;;4.77;3.50;;;21.90;27.50;;;;;;4956317;29;20438;-73
2022/03/12 07:11:03;;;;;;;6.53;3.63;;;21.90;27.40;;;;;;4955051;29;20412;-74
2022/03/12 07:13:30;;;;;;;6.20;3.30;;;21.90;27.60;;;;;;4954852;29;20413;-75
2022/03/12 07:15:56;;;;;;;7.05;3.50;;;22.00;27.70;;;;;;4956329;29;20417;-75
2022/03/12 07:18:22;;;;;;;7.07;4.00;;;21.80;27.80;;;;;;4962107;28;20447;-74
2022/03/12 07:20:48;;;;;;;5.70;3.22;;;21.80;27.90;;;;;;4958222;28;20913;-74
2022/03/12 07:23:13;;;;;;;5.72;3.50;;;21.80;28.00;;;;;;4975445;28;20396;-74
2022/03/12 07:25:40;;;;;;;4.87;3.10;;;21.80;27.80;;;;;;4958113;28;20430;-73
2022/03/12 07:28:05;;;;;;;6.40;3.50;;;21.80;27.70;;;;;;4951589;28;20400;-73
2022/03/12 07:30:31;;;;;;;5.15;3.28;;;21.90;27.90;;;;;;4934367;29;20912;-73
2022/03/12 07:32:57;;;;;;;5.28;3.30;;;21.90;27.90;;;;;;4934739;29;20393;-73
2022/03/12 07:35:23;;;;;;;5.40;3.17;;;22.00;27.70;;;;;;4919817;29;20413;-73
2022/03/12 07:37:49;;;;;;;4.70;3.40;;;22.00;27.90;;;;;;4937289;29;20408;-72
2022/03/12 07:40:16;;;;;;;5.70;3.05;;;22.10;27.60;;;;;;4934682;29;20396;-73
2022/03/12 07:42:42;;;;;;;5.65;3.03;;;22.10;27.40;;;;;;4936552;29;20403;-74
2022/03/12 07:45:09;;;;;;;5.60;3.10;;;22.20;27.30;;;;;;4936569;29;20467;-73
2022/03/12 07:47:36;;;;;;;3.63;2.83;;;22.20;27.20;;;;;;4935426;29;20896;-74
2022/03/12 07:50:05;;;;;;;6.30;3.40;;;22.20;27.20;;;;;;4936020;29;20408;-72
2022/03/12 07:52:31;;;;;;;7.30;3.30;;;22.20;27.00;;;;;;4935954;29;20427;-75
2022/03/12 07:54:57;;;;;;;6.68;3.42;;;22.20;26.90;;;;;;4936391;29;20935;-72
2022/03/12 07:57:26;;;;;;;6.88;3.20;;;22.30;26.90;;;;;;4936439;29;20490;-72
2022/03/12 07:59:53;;;;;;;6.82;3.42;;;22.20;26.90;;;;;;4936342;29;20470;-74
2022/03/12 08:02:19;;;;;;;5.65;3.28;;;22.20;26.80;;;;;;4918799;29;20415;-74
2022/03/12 08:04:44;;;;;;;6.53;3.30;;;22.30;26.70;;;;;;4936187;29;20413;-73
2022/03/12 08:07:10;;;;;;;5.00;3.30;;;22.30;26.60;;;;;;4936267;29;20396;-72
2022/03/12 08:09:36;;;;;;;6.05;3.40;;;22.40;26.40;;;;;;4936129;29;20794;-71
2022/03/12 08:12:02;;;;;;;7.47;3.40;;;22.40;26.30;;;;;;4936223;29;20404;-72
2022/03/12 08:14:28;;;;;;;4.32;3.20;;;22.50;26.20;;;;;;4935705;29;20536;-74
2022/03/12 08:16:54;;;;;;;5.80;3.25;;;22.50;26.00;;;;;;4936035;29;20410;-74
2022/03/12 08:19:20;;;;;;;6.70;3.30;;;22.50;26.00;;;;;;4935800;29;20427;-73
2022/03/12 08:21:47;;;;;;;4.47;3.00;;;22.50;26.00;;;;;;4935981;29;21026;-73
2022/03/12 08:24:15;;;;;;;6.10;3.28;;;22.60;26.00;;;;;;4935567;29;20395;-72
2022/03/12 08:26:46;;;;;;;4.25;2.97;;;22.60;26.00;;;;;;4918773;29;20814;-72
2022/03/12 08:29:14;;;;;;;4.13;2.90;;;22.60;25.90;;;;;;4918685;29;20910;-72
2022/03/12 08:31:41;;;;;;;4.78;3.20;;;22.70;26.00;;;;;;4918577;29;20404;-74
2022/03/12 08:34:07;;;;;;;3.92;3.08;;;22.80;25.90;;;;;;4918212;29;20423;-74
2022/03/12 08:36:33;;;;;;;4.05;3.15;;;22.80;25.90;;;;;;4918388;29;20973;-72
2022/03/12 08:38:59;;;;;;;3.80;3.00;;;22.90;25.80;;;;;;4935346;29;20479;-72
2022/03/12 08:41:25;;;;;;;5.60;3.17;;;23.00;25.80;;;;;;4935570;29;20395;-73
2022/03/12 08:43:51;;;;;;;4.63;3.00;;;23.00;25.80;;;;;;4918512;29;20500;-72
2022/03/12 08:46:18;;;;;;;4.88;3.00;;;23.10;25.80;;;;;;4935021;29;20894;-74
2022/03/12 08:48:44;;;;;;;4.05;3.22;;;23.10;25.70;;;;;;4935385;29;20973;-72
2022/03/12 08:51:10;;;;;;;3.53;3.00;;;23.20;25.70;;;;;;4935422;29;20394;-74
2022/03/12 08:53:36;;;;;;;4.15;2.80;;;23.30;25.70;;;;;;4935257;29;20435;-74
2022/03/12 08:56:03;;;;;;;3.58;2.90;;;23.30;25.70;;;;;;4935255;29;20432;-72
2022/03/12 08:58:31;;;;;;;3.83;3.00;;;23.40;25.70;;;;;;4934950;29;20388;-72
2022/03/12 09:00:59;;;;;;;4.38;2.90;;;23.40;25.60;;;;;;4935058;29;20459;-73
2022/03/12 09:03:25;;;;;;;5.00;3.17;;;23.50;25.60;;;;;;4935144;29;20451;-73
2022/03/12 09:05:51;;;;;;;4.22;2.92;;;23.50;25.50;;;;;;4934923;29;20396;-73
2022/03/12 09:08:18;;;;;;;4.88;3.00;;;23.60;25.50;;;;;;4934699;29;20443;-72
2022/03/12 09:10:44;;;;;;;2.90;2.40;;;23.60;25.40;;;;;;4935034;29;20478;-73
2022/03/12 09:13:13;;;;;;;4.03;2.90;;;23.70;25.40;;;;;;4934960;29;20415;-72
2022/03/12 09:15:40;;;;;;;4.50;2.80;;;23.70;25.20;;;;;;4934956;29;20415;-72
2022/03/12 09:18:06;;;;;;;3.73;2.73;;;23.80;25.30;;;;;;4934646;29;20521;-72
2022/03/12 09:20:36;;;;;;;4.15;2.60;;;23.80;25.20;;;;;;4934612;29;20411;-75
2022/03/12 09:23:02;;;;;;;3.45;2.75;;;23.90;25.40;;;;;;4917777;29;20412;-72
2022/03/12 09:25:27;;;;;;;3.50;2.70;;;23.90;25.20;;;;;;4934713;29;20457;-73
2022/03/12 09:27:53;;;;;;;3.63;2.60;;;24.00;25.10;;;;;;4917737;29;20788;-73
2022/03/12 09:30:19;;;;;;;3.55;2.85;;;24.00;25.20;;;;;;4933997;29;20478;-75
2022/03/12 09:32:45;;;;;;;6.80;3.30;;;24.10;25.30;;;;;;4917400;29;20399;-73
2022/03/12 09:35:11;;;;;;;5.67;3.60;;;24.10;24.90;;;;;;4917597;29;20913;-73
2022/03/12 09:37:38;;;;;;;9.55;4.70;;;24.10;23.80;;;;;;4917231;29;20396;-73
2022/03/12 09:40:05;;;;;;;7.43;4.70;;;24.00;23.10;;;;;;4917357;29;20407;-73
2022/03/12 09:42:31;;;;;;;7.57;4.85;;;24.00;22.90;;;;;;4916994;29;20403;-74
2022/03/12 09:44:58;;;;;;;8.98;5.28;;;24.00;22.40;;;;;;4917201;29;20478;-73
2022/03/12 09:47:24;;;;;;;8.55;4.75;;;24.00;22.30;;;;;;4917276;29;20428;-74
2022/03/12 09:49:49;;;;;;;7.10;5.22;;;24.00;21.90;;;;;;4934327;29;20438;-75
2022/03/12 09:52:17;;;;;;;7.90;5.35;;;24.00;21.70;;;;;;4916756;29;20740;-72
2022/03/12 09:54:43;;;;;;;9.57;4.80;;;24.00;21.40;;;;;;4916773;29;20435;-73
2022/03/12 09:57:09;;;;;;;7.57;4.90;;;24.00;21.70;;;;;;4933924;29;20787;-73
2022/03/12 09:59:34;;;;;;;9.50;4.75;;;24.10;22.30;;;;;;4934060;29;20404;-72
2022/03/12 10:02:00;;;;;;;6.93;4.33;;;24.10;22.70;;;;;;4917281;29;20461;-72
2022/03/12 10:04:26;;;;;;;8.90;4.57;;;24.20;22.90;;;;;;4938914;28;20834;-71
2022/03/12 10:06:53;;;;;;;5.95;4.15;;;24.30;23.60;;;;;;4970610;28;20447;-74
2022/03/12 10:09:19;;;;;;;7.43;4.20;;;24.40;23.70;;;;;;4970188;28;20396;-73
2022/03/12 10:11:45;;;;;;;4.97;3.80;;;24.50;23.70;;;;;;4952630;28;20393;-72
2022/03/12 10:14:11;;;;;;;6.63;3.90;;;24.50;24.10;;;;;;4938272;28;20431;-74
2022/03/12 10:16:37;;;;;;;6.00;3.75;;;24.60;24.00;;;;;;4962438;28;20475;-73
2022/03/12 10:19:03;;;;;;;5.05;3.65;;;24.70;24.10;;;;;;4961684;28;20521;-71
2022/03/12 10:21:30;;;;;;;4.93;3.40;;;24.80;24.40;;;;;;4961994;28;20396;-72
2022/03/12 10:23:57;;;;;;;5.80;3.70;;;24.90;24.30;;;;;;4962875;28;20400;-73
2022/03/12 10:26:23;;;;;;;5.05;3.70;;;25.00;24.60;;;;;;4959791;28;20890;-71
2022/03/12 10:28:49;;;;;;;5.55;3.38;;;25.00;24.40;;;;;;4944771;28;20402;-75
2022/03/12 10:31:19;;;;;;;5.70;3.10;;;25.10;24.70;;;;;;4963534;28;20416;-75
2022/03/12 10:33:45;;;;;;;5.72;3.60;;;25.20;24.80;;;;;;4972242;28;20979;-72
2022/03/12 10:36:14;;;;;;;4.20;3.10;;;25.30;24.70;;;;;;4971966;28;20439;-72
2022/03/12 10:38:47;;;;;;;5.00;2.95;;;25.40;24.80;;;;;;4971938;28;20961;-73
2022/03/12 10:41:13;;;;;;;4.75;3.22;;;25.50;24.60;;;;;;4954488;28;20471;-73
2022/03/12 10:43:49;;;;;;;4.10;2.80;;;25.60;24.90;;;;;;4970977;28;21030;-72
2022/03/12 10:46:28;;;;;;;5.00;2.83;;;25.60;24.70;;;;;;4971525;28;20388;-72
2022/03/12 10:48:59;;;;;;;4.88;2.97;;;25.70;24.80;;;;;;4954973;28;20400;-73
2022/03/12 10:51:29;;;;;;;6.07;3.10;;;25.80;24.90;;;;;;4972060;28;20392;-72
2022/03/12 10:54:10;;;;;;;4.25;2.75;;;25.80;24.70;;;;;;4972043;28;20783;-73
2022/03/12 10:56:58;;;;;;;4.97;2.83;;;25.80;24.20;;;;;;4951353;28;20416;-73
2022/03/12 10:59:26;;;;;;;3.83;2.72;;;25.80;24.70;;;;;;4960656;28;20400;-73
2022/03/12 11:01:55;;;;;;;4.57;2.90;;;25.90;24.70;;;;;;4964227;28;20396;-73
2022/03/12 11:04:26;;;;;;;5.97;3.03;;;25.90;24.50;;;;;;4963193;28;20407;-74
2022/03/12 11:06:57;;;;;;;6.18;2.83;;;26.00;24.40;;;;;;4958756;28;20424;-73
2022/03/12 11:09:37;;;;;;;7.60;3.07;;;26.00;24.40;;;;;;4963245;28;20876;-75
2022/03/12 11:12:29;;;;;;;5.60;2.70;;;26.20;24.40;;;;;;4963977;28;20408;-73
2022/03/12 11:15:15;;;;;;;4.03;2.50;;;26.20;24.30;;;;;;4961728;28;20431;-74
2022/03/12 11:17:46;;;;;;;5.38;2.78;;;26.40;24.30;;;;;;4946899;28;20771;-74
2022/03/12 11:20:35;;;;;;;6.82;2.88;;;26.40;24.10;;;;;;4944299;28;20477;-74
2022/03/12 11:23:13;;;;;;;13.82;3.20;;;26.50;24.20;;;;;;4963765;28;20398;-76
2022/03/12 11:25:57;;;;;;;8.87;2.70;;;26.60;24.30;;;;;;4945557;28;20489;-75
2022/03/12 11:28:24;;;;;;;8.85;2.60;;;26.60;24.10;;;;;;4963290;28;20397;-72
2022/03/12 11:30:50;;;;;;;6.43;2.90;;;26.80;24.10;;;;;;4950484;28;20482;-72
2022/03/12 11:33:18;;;;;;;5.93;2.80;;;26.90;24.10;;;;;;4947443;28;20412;-71
2022/03/12 11:35:45;;;;;;;4.63;2.95;;;27.00;23.80;;;;;;4966594;28;20415;-73
2022/03/12 11:38:17;;;;;;;4.63;2.88;;;27.00;23.50;;;;;;4965253;28;21025;-73
2022/03/12 11:40:51;;;;;;;4.57;2.70;;;27.00;23.10;;;;;;4948122;28;20399;-72
2022/03/12 11:43:22;;;;;;;4.28;2.53;;;27.00;23.10;;;;;;4962740;28;20394;-73
2022/03/12 11:45:48;;;;;;;6.43;2.65;;;27.00;23.20;;;;;;4949615;28;20421;-72
2022/03/12 11:48:14;;;;;;;4.75;2.67;;;27.00;23.10;;;;;;4966526;28;20470;-72
2022/03/12 11:50:40;;;;;;;6.85;2.90;;;27.00;23.20;;;;;;4967421;28;20394;-72
2022/03/12 11:53:06;;;;;;;6.32;3.25;;;27.10;22.60;;;;;;4947593;28;20403;-72
2022/03/12 11:55:32;;;;;;;4.60;3.40;;;27.00;22.40;;;;;;4949720;28;20420;-72
2022/03/12 11:58:01;;;;;;;5.33;3.13;;;27.00;21.70;;;;;;4950113;28;20404;-72
2022/03/12 12:00:29;;;;;;;4.47;3.50;;;27.00;21.40;;;;;;4964324;28;20824;-72
2022/03/12 12:02:55;;;;;;;5.07;3.00;;;27.00;21.10;;;;;;4948902;28;20408;-72
2022/03/12 12:05:23;;;;;;;4.45;2.90;;;26.90;21.20;;;;;;4966317;28;20409;-73
2022/03/12 12:07:52;;;;;;;5.65;3.17;;;27.00;21.90;;;;;;4960868;28;20772;-72
2022/03/12 12:10:30;;;;;;;6.80;3.00;;;27.10;22.00;;;;;;4942414;28;20402;-73
2022/03/12 12:12:58;;;;;;;6.45;3.10;;;27.00;22.70;;;;;;4949335;28;20483;-72
2022/03/12 12:15:36;;;;;;;4.95;2.80;;;27.10;23.10;;;;;;4973810;28;20414;-72
2022/03/12 12:18:03;;;;;;;4.93;3.08;;;27.10;23.20;;;;;;4973840;28;20480;-72
2022/03/12 12:20:30;;;;;;;5.30;2.73;;;27.20;24.10;;;;;;4973173;28;20802;-72
2022/03/12 12:22:58;;;;;;;5.07;2.40;;;27.20;23.60;;;;;;4964413;28;20410;-72
2022/03/12 12:25:26;;;;;;;4.93;2.60;;;27.20;23.40;;;;;;4956912;28;20441;-72
2022/03/12 12:27:53;;;;;;;4.93;2.67;;;27.30;23.50;;;;;;4954348;29;20386;-72
2022/03/12 12:30:28;;;;;;;3.67;2.90;;;27.30;23.50;;;;;;4954035;29;20394;-71
2022/03/12 12:32:56;;;;;;;4.68;2.70;;;27.40;23.60;;;;;;4959977;28;20482;-72
2022/03/12 12:35:23;;;;;;;4.23;2.60;;;27.40;23.50;;;;;;4962067;28;20459;-71
2022/03/12 12:38:02;;;;;;;4.75;2.58;;;27.40;23.60;;;;;;4954127;29;20394;-71
2022/03/12 12:40:36;;;;;;;3.97;2.75;;;27.50;23.60;;;;;;4953642;29;20400;-71
2022/03/12 12:43:09;;;;;;;4.63;2.40;;;27.50;23.70;;;;;;4939323;28;21069;-72
2022/03/12 12:45:52;;;;;;;4.47;2.13;;;27.50;23.80;;;;;;4963425;28;20510;-72
2022/03/12 12:48:26;;;;;;;3.53;2.35;;;27.60;23.80;;;;;;4962592;28;20461;-72
2022/03/12 12:51:21;;;;;;;4.20;2.47;;;27.60;23.50;;;;;;4959601;28;20404;-72
2022/03/12 12:53:47;;;;;;;4.30;2.63;;;27.70;23.60;;;;;;4959363;28;20428;-72